Terminal Aerodrome Forecast
Issued by NWS

Home | Current Version | Previous Version | Text Only | Print | Product List | Glossary Off
Versions: 1 2 3 4 5 6 7 8 9 10 11 12 13

697
FTUS43 KUNR 250520
TAFGCC
TAF
KGCC 250520Z 2506/2606 23007KT P6SM BKN060
     FM251000 25007KT P6SM BKN025
     FM251200 27007KT P6SM BKN015
     FM251800 27008KT 5SM -SHSN OVC030
     FM260000 28007KT P6SM BKN070
     FM260400 22007KT P6SM BKN100=

USA.gov is the U.S. government's official web portal to all federal, state and local government web resources and services.